sensor_id;sensor_type;location;lat;lon;timestamp;P1;durP1;ratioP1;P2;durP2;ratioP2
60859;SDS011;46694;54.382;9.708;2024-01-06T00:01:51;5.53;;;2.28;;
60859;SDS011;46694;54.382;9.708;2024-01-06T00:04:17;5.57;;;1.75;;
60859;SDS011;46694;54.382;9.708;2024-01-06T00:06:43;8.25;;;2.30;;
60859;SDS011;46694;54.382;9.708;2024-01-06T00:09:09;6.03;;;1.80;;
60859;SDS011;46694;54.382;9.708;2024-01-06T00:11:34;6.05;;;2.00;;
60859;SDS011;46694;54.382;9.708;2024-01-06T00:14:00;5.22;;;1.92;;
60859;SDS011;46694;54.382;9.708;2024-01-06T00:16:26;7.57;;;2.03;;
60859;SDS011;46694;54.382;9.708;2024-01-06T00:18:52;6.05;;;2.30;;
60859;SDS011;46694;54.382;9.708;2024-01-06T00:21:18;4.82;;;2.20;;
60859;SDS011;46694;54.382;9.708;2024-01-06T00:23:44;5.10;;;2.28;;
60859;SDS011;46694;54.382;9.708;2024-01-06T00:26:10;5.63;;;2.40;;
60859;SDS011;46694;54.382;9.708;2024-01-06T00:28:36;6.90;;;2.90;;
60859;SDS011;46694;54.382;9.708;2024-01-06T00:31:04;5.97;;;1.92;;
60859;SDS011;46694;54.382;9.708;2024-01-06T00:33:31;5.85;;;2.20;;
60859;SDS011;46694;54.382;9.708;2024-01-06T00:35:56;6.13;;;2.35;;
60859;SDS011;46694;54.382;9.708;2024-01-06T00:38:22;5.03;;;2.25;;
60859;SDS011;46694;54.382;9.708;2024-01-06T00:40:48;5.88;;;2.33;;
60859;SDS011;46694;54.382;9.708;2024-01-06T00:43:14;4.72;;;2.03;;
60859;SDS011;46694;54.382;9.708;2024-01-06T00:45:40;7.25;;;2.50;;
60859;SDS011;46694;54.382;9.708;2024-01-06T00:48:06;4.28;;;1.90;;
60859;SDS011;46694;54.382;9.708;2024-01-06T00:50:32;4.90;;;2.13;;
60859;SDS011;46694;54.382;9.708;2024-01-06T00:52:58;7.93;;;2.55;;
60859;SDS011;46694;54.382;9.708;2024-01-06T00:55:23;6.88;;;2.33;;
60859;SDS011;46694;54.382;9.708;2024-01-06T00:57:50;5.10;;;2.17;;
60859;SDS011;46694;54.382;9.708;2024-01-06T01:00:16;5.97;;;2.35;;
60859;SDS011;46694;54.382;9.708;2024-01-06T01:02:42;6.13;;;2.00;;
60859;SDS011;46694;54.382;9.708;2024-01-06T01:05:08;5.20;;;2.20;;
60859;SDS011;46694;54.382;9.708;2024-01-06T01:07:34;8.85;;;2.13;;
60859;SDS011;46694;54.382;9.708;2024-01-06T01:10:00;7.30;;;2.13;;
60859;SDS011;46694;54.382;9.708;2024-01-06T01:12:26;6.22;;;2.38;;
60859;SDS011;46694;54.382;9.708;2024-01-06T01:14:52;5.32;;;2.17;;
60859;SDS011;46694;54.382;9.708;2024-01-06T01:17:18;6.05;;;2.08;;
60859;SDS011;46694;54.382;9.708;2024-01-06T01:19:45;6.63;;;2.50;;
60859;SDS011;46694;54.382;9.708;2024-01-06T01:22:13;5.70;;;2.20;;
60859;SDS011;46694;54.382;9.708;2024-01-06T01:24:39;7.68;;;2.25;;
60859;SDS011;46694;54.382;9.708;2024-01-06T01:27:05;9.00;;;2.60;;
60859;SDS011;46694;54.382;9.708;2024-01-06T01:29:31;6.15;;;2.20;;
60859;SDS011;46694;54.382;9.708;2024-01-06T01:31:57;5.97;;;1.98;;
60859;SDS011;46694;54.382;9.708;2024-01-06T01:34:22;5.20;;;2.33;;
60859;SDS011;46694;54.382;9.708;2024-01-06T01:36:48;4.97;;;2.20;;
60859;SDS011;46694;54.382;9.708;2024-01-06T01:39:15;5.90;;;2.35;;
60859;SDS011;46694;54.382;9.708;2024-01-06T01:41:40;4.82;;;2.22;;
60859;SDS011;46694;54.382;9.708;2024-01-06T01:44:06;6.30;;;2.55;;
60859;SDS011;46694;54.382;9.708;2024-01-06T01:46:32;4.43;;;1.80;;
60859;SDS011;46694;54.382;9.708;2024-01-06T01:48:59;5.65;;;2.00;;
60859;SDS011;46694;54.382;9.708;2024-01-06T01:51:27;6.97;;;2.30;;
60859;SDS011;46694;54.382;9.708;2024-01-06T01:53:55;8.23;;;2.75;;
60859;SDS011;46694;54.382;9.708;2024-01-06T01:56:27;6.35;;;2.42;;
60859;SDS011;46694;54.382;9.708;2024-01-06T01:58:54;6.15;;;2.20;;
60859;SDS011;46694;54.382;9.708;2024-01-06T02:01:20;5.50;;;2.20;;
60859;SDS011;46694;54.382;9.708;2024-01-06T02:03:46;4.88;;;2.15;;
60859;SDS011;46694;54.382;9.708;2024-01-06T02:06:12;7.15;;;2.08;;
60859;SDS011;46694;54.382;9.708;2024-01-06T02:08:38;5.32;;;2.40;;
60859;SDS011;46694;54.382;9.708;2024-01-06T02:11:05;6.50;;;2.40;;
60859;SDS011;46694;54.382;9.708;2024-01-06T02:13:34;5.90;;;2.28;;
60859;SDS011;46694;54.382;9.708;2024-01-06T02:16:05;6.47;;;2.17;;
60859;SDS011;46694;54.382;9.708;2024-01-06T02:18:31;5.85;;;2.10;;
60859;SDS011;46694;54.382;9.708;2024-01-06T02:20:58;5.05;;;2.25;;
60859;SDS011;46694;54.382;9.708;2024-01-06T02:23:26;8.10;;;2.40;;
60859;SDS011;46694;54.382;9.708;2024-01-06T02:25:53;4.97;;;1.73;;
60859;SDS011;46694;54.382;9.708;2024-01-06T02:28:20;5.10;;;2.05;;
60859;SDS011;46694;54.382;9.708;2024-01-06T02:30:46;6.97;;;2.17;;
60859;SDS011;46694;54.382;9.708;2024-01-06T02:33:12;5.65;;;2.20;;
60859;SDS011;46694;54.382;9.708;2024-01-06T02:35:38;5.63;;;2.03;;
60859;SDS011;46694;54.382;9.708;2024-01-06T02:38:05;7.57;;;2.33;;
60859;SDS011;46694;54.382;9.708;2024-01-06T02:40:32;5.57;;;2.28;;
60859;SDS011;46694;54.382;9.708;2024-01-06T02:42:58;5.15;;;1.90;;
60859;SDS011;46694;54.382;9.708;2024-01-06T02:45:24;5.63;;;2.55;;
60859;SDS011;46694;54.382;9.708;2024-01-06T02:47:50;5.85;;;2.13;;
60859;SDS011;46694;54.382;9.708;2024-01-06T02:50:16;4.55;;;1.90;;
60859;SDS011;46694;54.382;9.708;2024-01-06T02:52:42;6.00;;;2.38;;
60859;SDS011;46694;54.382;9.708;2024-01-06T02:55:10;7.93;;;2.38;;
60859;SDS011;46694;54.382;9.708;2024-01-06T02:57:36;7.38;;;2.17;;
60859;SDS011;46694;54.382;9.708;2024-01-06T03:00:03;6.38;;;2.10;;
60859;SDS011;46694;54.382;9.708;2024-01-06T03:02:29;5.18;;;2.08;;
60859;SDS011;46694;54.382;9.708;2024-01-06T03:04:55;5.18;;;2.08;;
60859;SDS011;46694;54.382;9.708;2024-01-06T03:07:21;5.32;;;2.45;;
60859;SDS011;46694;54.382;9.708;2024-01-06T03:09:47;5.45;;;2.47;;
60859;SDS011;46694;54.382;9.708;2024-01-06T03:12:13;5.30;;;1.90;;
60859;SDS011;46694;54.382;9.708;2024-01-06T03:14:39;5.68;;;2.30;;
60859;SDS011;46694;54.382;9.708;2024-01-06T03:17:05;5.47;;;2.10;;
60859;SDS011;46694;54.382;9.708;2024-01-06T03:19:30;6.15;;;2.45;;
60859;SDS011;46694;54.382;9.708;2024-01-06T03:21:56;6.72;;;2.05;;
60859;SDS011;46694;54.382;9.708;2024-01-06T03:24:23;7.70;;;2.60;;
60859;SDS011;46694;54.382;9.708;2024-01-06T03:26:52;5.85;;;2.17;;
60859;SDS011;46694;54.382;9.708;2024-01-06T03:29:18;5.07;;;2.10;;
60859;SDS011;46694;54.382;9.708;2024-01-06T03:31:44;6.80;;;2.45;;
60859;SDS011;46694;54.382;9.708;2024-01-06T03:34:11;7.07;;;2.45;;
60859;SDS011;46694;54.382;9.708;2024-01-06T03:36:37;5.90;;;2.38;;
60859;SDS011;46694;54.382;9.708;2024-01-06T03:39:03;5.28;;;2.33;;
60859;SDS011;46694;54.382;9.708;2024-01-06T03:41:29;5.45;;;2.10;;
60859;SDS011;46694;54.382;9.708;2024-01-06T03:43:56;5.82;;;2.40;;
60859;SDS011;46694;54.382;9.708;2024-01-06T03:46:22;8.93;;;2.20;;
60859;SDS011;46694;54.382;9.708;2024-01-06T03:48:48;5.13;;;2.00;;
60859;SDS011;46694;54.382;9.708;2024-01-06T03:51:14;6.93;;;2.28;;
60859;SDS011;46694;54.382;9.708;2024-01-06T03:53:40;5.15;;;2.17;;
60859;SDS011;46694;54.382;9.708;2024-01-06T03:56:06;7.45;;;2.30;;
60859;SDS011;46694;54.382;9.708;2024-01-06T03:58:33;5.05;;;1.95;;
60859;SDS011;46694;54.382;9.708;2024-01-06T04:00:59;5.43;;;2.00;;
60859;SDS011;46694;54.382;9.708;2024-01-06T04:03:25;6.30;;;2.42;;
60859;SDS011;46694;54.382;9.708;2024-01-06T04:05:51;5.82;;;2.25;;
60859;SDS011;46694;54.382;9.708;2024-01-06T04:08:17;5.47;;;2.03;;
60859;SDS011;46694;54.382;9.708;2024-01-06T04:10:43;4.70;;;2.20;;
60859;SDS011;46694;54.382;9.708;2024-01-06T04:13:10;6.07;;;2.28;;
60859;SDS011;46694;54.382;9.708;2024-01-06T04:15:36;5.18;;;2.33;;
60859;SDS011;46694;54.382;9.708;2024-01-06T04:18:03;10.68;;;2.47;;
60859;SDS011;46694;54.382;9.708;2024-01-06T04:20:30;10.57;;;2.88;;
60859;SDS011;46694;54.382;9.708;2024-01-06T04:22:57;6.05;;;2.10;;
60859;SDS011;46694;54.382;9.708;2024-01-06T04:25:23;7.72;;;2.40;;
60859;SDS011;46694;54.382;9.708;2024-01-06T04:27:49;6.75;;;2.17;;
60859;SDS011;46694;54.382;9.708;2024-01-06T04:30:15;6.05;;;2.30;;
60859;SDS011;46694;54.382;9.708;2024-01-06T04:32:42;5.97;;;1.95;;
60859;SDS011;46694;54.382;9.708;2024-01-06T04:35:08;5.38;;;1.95;;
60859;SDS011;46694;54.382;9.708;2024-01-06T04:37:35;5.63;;;2.13;;
60859;SDS011;46694;54.382;9.708;2024-01-06T04:40:01;5.30;;;2.08;;
60859;SDS011;46694;54.382;9.708;2024-01-06T04:42:27;7.28;;;2.17;;
60859;SDS011;46694;54.382;9.708;2024-01-06T04:44:53;8.50;;;2.03;;
60859;SDS011;46694;54.382;9.708;2024-01-06T04:47:19;6.78;;;2.33;;
60859;SDS011;46694;54.382;9.708;2024-01-06T04:49:45;5.60;;;1.85;;
60859;SDS011;46694;54.382;9.708;2024-01-06T04:52:11;6.20;;;1.77;;
60859;SDS011;46694;54.382;9.708;2024-01-06T04:54:36;4.68;;;1.80;;
60859;SDS011;46694;54.382;9.708;2024-01-06T04:57:02;6.80;;;2.00;;
60859;SDS011;46694;54.382;9.708;2024-01-06T04:59:29;7.13;;;1.95;;
60859;SDS011;46694;54.382;9.708;2024-01-06T05:01:55;9.90;;;2.28;;
60859;SDS011;46694;54.382;9.708;2024-01-06T05:04:23;5.25;;;1.75;;
60859;SDS011;46694;54.382;9.708;2024-01-06T05:06:50;6.40;;;1.90;;
60859;SDS011;46694;54.382;9.708;2024-01-06T05:09:17;6.50;;;1.98;;
60859;SDS011;46694;54.382;9.708;2024-01-06T05:11:43;5.07;;;1.83;;
60859;SDS011;46694;54.382;9.708;2024-01-06T05:14:09;5.85;;;1.77;;
60859;SDS011;46694;54.382;9.708;2024-01-06T05:16:36;7.07;;;2.03;;
60859;SDS011;46694;54.382;9.708;2024-01-06T05:19:02;6.75;;;1.70;;
60859;SDS011;46694;54.382;9.708;2024-01-06T05:21:28;3.90;;;1.60;;
60859;SDS011;46694;54.382;9.708;2024-01-06T05:23:55;7.03;;;1.70;;
60859;SDS011;46694;54.382;9.708;2024-01-06T05:26:20;4.53;;;1.60;;
60859;SDS011;46694;54.382;9.708;2024-01-06T05:28:46;5.03;;;2.03;;
60859;SDS011;46694;54.382;9.708;2024-01-06T05:31:12;4.05;;;1.80;;
60859;SDS011;46694;54.382;9.708;2024-01-06T05:33:38;6.47;;;2.33;;
60859;SDS011;46694;54.382;9.708;2024-01-06T05:36:04;5.13;;;1.77;;
60859;SDS011;46694;54.382;9.708;2024-01-06T05:38:30;5.80;;;1.67;;
60859;SDS011;46694;54.382;9.708;2024-01-06T05:40:56;5.22;;;1.80;;
60859;SDS011;46694;54.382;9.708;2024-01-06T05:43:22;4.72;;;1.70;;
60859;SDS011;46694;54.382;9.708;2024-01-06T05:45:47;5.60;;;1.90;;
60859;SDS011;46694;54.382;9.708;2024-01-06T05:48:13;3.92;;;1.80;;
60859;SDS011;46694;54.382;9.708;2024-01-06T05:50:39;6.68;;;1.83;;
60859;SDS011;46694;54.382;9.708;2024-01-06T05:53:06;8.20;;;1.90;;
60859;SDS011;46694;54.382;9.708;2024-01-06T05:55:33;5.93;;;1.73;;
60859;SDS011;46694;54.382;9.708;2024-01-06T05:57:59;5.05;;;1.60;;
60859;SDS011;46694;54.382;9.708;2024-01-06T06:00:26;5.18;;;1.45;;
60859;SDS011;46694;54.382;9.708;2024-01-06T06:02:52;5.10;;;1.48;;
60859;SDS011;46694;54.382;9.708;2024-01-06T06:05:18;6.63;;;2.28;;
60859;SDS011;46694;54.382;9.708;2024-01-06T06:07:45;5.43;;;1.60;;
60859;SDS011;46694;54.382;9.708;2024-01-06T06:10:11;5.28;;;1.40;;
60859;SDS011;46694;54.382;9.708;2024-01-06T06:12:37;5.47;;;1.27;;
60859;SDS011;46694;54.382;9.708;2024-01-06T06:15:04;4.65;;;1.70;;
60859;SDS011;46694;54.382;9.708;2024-01-06T06:17:31;4.30;;;1.40;;
60859;SDS011;46694;54.382;9.708;2024-01-06T06:19:58;4.13;;;1.60;;
60859;SDS011;46694;54.382;9.708;2024-01-06T06:22:24;3.30;;;1.10;;
60859;SDS011;46694;54.382;9.708;2024-01-06T06:24:57;5.10;;;1.27;;
60859;SDS011;46694;54.382;9.708;2024-01-06T06:27:24;7.95;;;1.65;;
60859;SDS011;46694;54.382;9.708;2024-01-06T06:29:51;5.22;;;1.30;;
60859;SDS011;46694;54.382;9.708;2024-01-06T06:32:18;3.95;;;1.17;;
60859;SDS011;46694;54.382;9.708;2024-01-06T06:34:44;3.65;;;1.30;;
60859;SDS011;46694;54.382;9.708;2024-01-06T06:37:10;4.75;;;1.20;;
60859;SDS011;46694;54.382;9.708;2024-01-06T06:39:36;4.47;;;1.30;;
60859;SDS011;46694;54.382;9.708;2024-01-06T06:42:02;4.28;;;1.02;;
60859;SDS011;46694;54.382;9.708;2024-01-06T06:44:28;4.97;;;1.20;;
60859;SDS011;46694;54.382;9.708;2024-01-06T06:46:55;6.97;;;1.23;;
60859;SDS011;46694;54.382;9.708;2024-01-06T06:49:21;4.95;;;1.20;;
60859;SDS011;46694;54.382;9.708;2024-01-06T06:51:47;3.17;;;1.10;;
60859;SDS011;46694;54.382;9.708;2024-01-06T06:54:16;3.15;;;0.93;;
60859;SDS011;46694;54.382;9.708;2024-01-06T06:56:42;5.93;;;1.50;;
60859;SDS011;46694;54.382;9.708;2024-01-06T06:59:08;4.90;;;1.27;;
60859;SDS011;46694;54.382;9.708;2024-01-06T07:01:34;5.47;;;1.20;;
60859;SDS011;46694;54.382;9.708;2024-01-06T07:04:00;4.05;;;1.10;;
60859;SDS011;46694;54.382;9.708;2024-01-06T07:06:27;6.95;;;1.10;;
60859;SDS011;46694;54.382;9.708;2024-01-06T07:08:54;3.45;;;1.17;;
60859;SDS011;46694;54.382;9.708;2024-01-06T07:11:21;3.58;;;1.20;;
60859;SDS011;46694;54.382;9.708;2024-01-06T07:13:47;3.70;;;1.13;;
60859;SDS011;46694;54.382;9.708;2024-01-06T07:16:14;6.18;;;1.40;;
60859;SDS011;46694;54.382;9.708;2024-01-06T07:18:40;3.33;;;1.00;;
60859;SDS011;46694;54.382;9.708;2024-01-06T07:21:06;4.03;;;1.00;;
60859;SDS011;46694;54.382;9.708;2024-01-06T07:23:32;3.03;;;0.98;;
60859;SDS011;46694;54.382;9.708;2024-01-06T07:25:59;4.07;;;1.02;;
60859;SDS011;46694;54.382;9.708;2024-01-06T07:28:24;2.58;;;0.80;;
60859;SDS011;46694;54.382;9.708;2024-01-06T07:30:51;4.35;;;1.02;;
60859;SDS011;46694;54.382;9.708;2024-01-06T07:33:17;4.95;;;1.13;;
60859;SDS011;46694;54.382;9.708;2024-01-06T07:35:42;4.95;;;1.13;;
60859;SDS011;46694;54.382;9.708;2024-01-06T07:38:11;2.17;;;0.82;;
60859;SDS011;46694;54.382;9.708;2024-01-06T07:40:38;3.17;;;1.20;;
60859;SDS011;46694;54.382;9.708;2024-01-06T07:43:05;3.38;;;1.08;;
60859;SDS011;46694;54.382;9.708;2024-01-06T07:45:31;2.67;;;0.77;;
60859;SDS011;46694;54.382;9.708;2024-01-06T07:47:58;3.13;;;1.00;;
60859;SDS011;46694;54.382;9.708;2024-01-06T07:50:24;2.35;;;0.70;;
60859;SDS011;46694;54.382;9.708;2024-01-06T07:52:50;3.22;;;1.00;;
60859;SDS011;46694;54.382;9.708;2024-01-06T07:55:16;3.67;;;0.88;;
60859;SDS011;46694;54.382;9.708;2024-01-06T07:57:44;2.53;;;0.85;;
60859;SDS011;46694;54.382;9.708;2024-01-06T08:00:10;3.05;;;0.80;;
60859;SDS011;46694;54.382;9.708;2024-01-06T08:02:40;3.30;;;1.00;;
60859;SDS011;46694;54.382;9.708;2024-01-06T08:05:07;3.42;;;0.80;;
60859;SDS011;46694;54.382;9.708;2024-01-06T08:07:33;3.22;;;0.90;;
60859;SDS011;46694;54.382;9.708;2024-01-06T08:09:59;3.47;;;1.00;;
60859;SDS011;46694;54.382;9.708;2024-01-06T08:12:25;3.90;;;1.08;;
60859;SDS011;46694;54.382;9.708;2024-01-06T08:14:51;2.88;;;0.60;;
60859;SDS011;46694;54.382;9.708;2024-01-06T08:17:17;3.25;;;1.02;;
60859;SDS011;46694;54.382;9.708;2024-01-06T08:19:43;3.58;;;1.00;;
60859;SDS011;46694;54.382;9.708;2024-01-06T08:22:12;2.72;;;0.82;;
60859;SDS011;46694;54.382;9.708;2024-01-06T08:24:38;4.45;;;1.05;;
60859;SDS011;46694;54.382;9.708;2024-01-06T08:27:04;4.50;;;1.27;;
60859;SDS011;46694;54.382;9.708;2024-01-06T08:29:30;3.28;;;0.98;;
60859;SDS011;46694;54.382;9.708;2024-01-06T08:31:56;3.33;;;0.90;;
60859;SDS011;46694;54.382;9.708;2024-01-06T08:34:22;2.67;;;0.85;;
60859;SDS011;46694;54.382;9.708;2024-01-06T08:36:48;2.67;;;0.85;;
60859;SDS011;46694;54.382;9.708;2024-01-06T08:39:14;3.25;;;1.05;;
60859;SDS011;46694;54.382;9.708;2024-01-06T08:41:40;3.30;;;1.00;;
60859;SDS011;46694;54.382;9.708;2024-01-06T08:44:06;4.07;;;0.90;;
60859;SDS011;46694;54.382;9.708;2024-01-06T08:46:32;5.00;;;1.27;;
60859;SDS011;46694;54.382;9.708;2024-01-06T08:48:58;4.40;;;1.20;;
60859;SDS011;46694;54.382;9.708;2024-01-06T08:51:25;2.30;;;0.80;;
60859;SDS011;46694;54.382;9.708;2024-01-06T08:53:51;3.53;;;1.38;;
60859;SDS011;46694;54.382;9.708;2024-01-06T08:56:18;2.20;;;0.70;;
60859;SDS011;46694;54.382;9.708;2024-01-06T08:58:45;3.35;;;1.05;;
60859;SDS011;46694;54.382;9.708;2024-01-06T09:01:11;2.92;;;1.08;;
60859;SDS011;46694;54.382;9.708;2024-01-06T09:03:38;6.68;;;2.10;;
60859;SDS011;46694;54.382;9.708;2024-01-06T09:06:04;2.22;;;0.68;;
60859;SDS011;46694;54.382;9.708;2024-01-06T09:08:30;2.40;;;0.70;;
60859;SDS011;46694;54.382;9.708;2024-01-06T09:10:56;4.38;;;1.60;;
60859;SDS011;46694;54.382;9.708;2024-01-06T09:13:23;3.63;;;0.95;;
60859;SDS011;46694;54.382;9.708;2024-01-06T09:15:50;3.50;;;1.15;;
60859;SDS011;46694;54.382;9.708;2024-01-06T09:18:16;2.55;;;0.82;;
60859;SDS011;46694;54.382;9.708;2024-01-06T09:20:43;5.10;;;1.40;;
60859;SDS011;46694;54.382;9.708;2024-01-06T09:23:12;2.70;;;0.93;;
60859;SDS011;46694;54.382;9.708;2024-01-06T09:25:38;3.63;;;1.10;;
60859;SDS011;46694;54.382;9.708;2024-01-06T09:28:07;3.33;;;1.00;;
60859;SDS011;46694;54.382;9.708;2024-01-06T09:30:33;3.85;;;1.10;;
60859;SDS011;46694;54.382;9.708;2024-01-06T09:32:59;2.60;;;0.90;;
60859;SDS011;46694;54.382;9.708;2024-01-06T09:35:25;3.35;;;1.00;;
60859;SDS011;46694;54.382;9.708;2024-01-06T09:37:51;2.67;;;0.88;;
60859;SDS011;46694;54.382;9.708;2024-01-06T09:40:21;4.13;;;0.90;;
60859;SDS011;46694;54.382;9.708;2024-01-06T09:42:48;4.45;;;1.00;;
60859;SDS011;46694;54.382;9.708;2024-01-06T09:45:15;4.80;;;1.20;;
60859;SDS011;46694;54.382;9.708;2024-01-06T09:47:42;3.35;;;0.90;;
60859;SDS011;46694;54.382;9.708;2024-01-06T09:50:13;4.47;;;1.05;;
60859;SDS011;46694;54.382;9.708;2024-01-06T09:52:40;2.63;;;0.82;;
60859;SDS011;46694;54.382;9.708;2024-01-06T09:55:08;3.10;;;1.00;;
60859;SDS011;46694;54.382;9.708;2024-01-06T10:00:03;3.75;;;1.10;;
60859;SDS011;46694;54.382;9.708;2024-01-06T10:02:30;2.90;;;0.90;;
60859;SDS011;46694;54.382;9.708;2024-01-06T10:07:43;2.70;;;0.90;;
60859;SDS011;46694;54.382;9.708;2024-01-06T10:10:10;2.78;;;0.85;;
60859;SDS011;46694;54.382;9.708;2024-01-06T10:12:37;7.18;;;1.20;;
60859;SDS011;46694;54.382;9.708;2024-01-06T10:15:04;4.38;;;0.95;;
60859;SDS011;46694;54.382;9.708;2024-01-06T10:17:40;3.65;;;1.20;;
60859;SDS011;46694;54.382;9.708;2024-01-06T10:20:10;7.50;;;1.40;;
60859;SDS011;46694;54.382;9.708;2024-01-06T10:22:40;5.05;;;1.10;;
60859;SDS011;46694;54.382;9.708;2024-01-06T10:25:11;4.82;;;1.17;;
60859;SDS011;46694;54.382;9.708;2024-01-06T10:27:39;3.95;;;1.20;;
60859;SDS011;46694;54.382;9.708;2024-01-06T10:30:06;4.85;;;1.35;;
60859;SDS011;46694;54.382;9.708;2024-01-06T10:32:34;3.47;;;0.90;;
60859;SDS011;46694;54.382;9.708;2024-01-06T10:35:01;7.53;;;1.10;;
60859;SDS011;46694;54.382;9.708;2024-01-06T10:37:30;5.40;;;1.55;;
60859;SDS011;46694;54.382;9.708;2024-01-06T10:40:30;5.30;;;1.30;;
60859;SDS011;46694;54.382;9.708;2024-01-06T10:42:49;6.70;;;1.20;;
60859;SDS011;46694;54.382;9.708;2024-01-06T10:45:15;3.78;;;1.10;;
60859;SDS011;46694;54.382;9.708;2024-01-06T10:47:42;3.13;;;1.00;;
60859;SDS011;46694;54.382;9.708;2024-01-06T10:50:09;3.33;;;1.02;;
60859;SDS011;46694;54.382;9.708;2024-01-06T10:52:37;3.20;;;1.10;;
60859;SDS011;46694;54.382;9.708;2024-01-06T10:55:04;3.85;;;1.30;;
60859;SDS011;46694;54.382;9.708;2024-01-06T10:57:31;5.88;;;1.40;;
60859;SDS011;46694;54.382;9.708;2024-01-06T10:59:58;5.63;;;1.98;;
60859;SDS011;46694;54.382;9.708;2024-01-06T11:02:25;4.90;;;1.10;;
60859;SDS011;46694;54.382;9.708;2024-01-06T11:04:52;4.05;;;1.17;;
60859;SDS011;46694;54.382;9.708;2024-01-06T11:07:19;3.58;;;1.23;;
60859;SDS011;46694;54.382;9.708;2024-01-06T11:10:03;4.30;;;1.23;;
60859;SDS011;46694;54.382;9.708;2024-01-06T11:12:41;4.50;;;1.20;;
60859;SDS011;46694;54.382;9.708;2024-01-06T11:15:38;3.75;;;0.82;;
60859;SDS011;46694;54.382;9.708;2024-01-06T11:23:44;6.32;;;1.20;;
60859;SDS011;46694;54.382;9.708;2024-01-06T11:26:11;5.38;;;1.45;;
60859;SDS011;46694;54.382;9.708;2024-01-06T11:28:57;3.00;;;0.98;;
60859;SDS011;46694;54.382;9.708;2024-01-06T11:31:31;4.75;;;1.10;;
60859;SDS011;46694;54.382;9.708;2024-01-06T11:33:58;4.57;;;1.52;;
60859;SDS011;46694;54.382;9.708;2024-01-06T11:36:40;4.95;;;1.20;;
60859;SDS011;46694;54.382;9.708;2024-01-06T11:39:33;3.20;;;1.25;;
60859;SDS011;46694;54.382;9.708;2024-01-06T11:42:03;3.65;;;1.23;;
60859;SDS011;46694;54.382;9.708;2024-01-06T11:44:33;4.63;;;1.00;;
60859;SDS011;46694;54.382;9.708;2024-01-06T11:47:02;3.20;;;0.98;;
60859;SDS011;46694;54.382;9.708;2024-01-06T11:49:29;3.13;;;1.08;;
60859;SDS011;46694;54.382;9.708;2024-01-06T11:51:58;3.47;;;1.15;;
60859;SDS011;46694;54.382;9.708;2024-01-06T11:54:26;5.05;;;1.35;;
60859;SDS011;46694;54.382;9.708;2024-01-06T11:56:53;4.22;;;1.25;;
60859;SDS011;46694;54.382;9.708;2024-01-06T11:59:20;3.60;;;1.25;;
60859;SDS011;46694;54.382;9.708;2024-01-06T12:01:46;4.53;;;1.38;;
60859;SDS011;46694;54.382;9.708;2024-01-06T12:04:15;4.38;;;1.38;;
60859;SDS011;46694;54.382;9.708;2024-01-06T12:06:42;4.10;;;1.35;;
60859;SDS011;46694;54.382;9.708;2024-01-06T12:09:12;4.43;;;1.23;;
60859;SDS011;46694;54.382;9.708;2024-01-06T12:11:41;6.38;;;2.55;;
60859;SDS011;46694;54.382;9.708;2024-01-06T12:14:10;19.65;;;5.95;;
60859;SDS011;46694;54.382;9.708;2024-01-06T12:16:37;5.25;;;1.70;;
60859;SDS011;46694;54.382;9.708;2024-01-06T12:19:03;5.18;;;1.40;;
60859;SDS011;46694;54.382;9.708;2024-01-06T12:21:29;4.85;;;1.60;;
60859;SDS011;46694;54.382;9.708;2024-01-06T12:24:12;6.65;;;1.70;;
60859;SDS011;46694;54.382;9.708;2024-01-06T12:26:44;6.18;;;1.60;;
60859;SDS011;46694;54.382;9.708;2024-01-06T12:29:11;3.63;;;1.30;;
60859;SDS011;46694;54.382;9.708;2024-01-06T12:31:38;5.15;;;1.27;;
60859;SDS011;46694;54.382;9.708;2024-01-06T12:34:06;5.90;;;1.60;;
60859;SDS011;46694;54.382;9.708;2024-01-06T12:36:39;4.40;;;1.48;;
60859;SDS011;46694;54.382;9.708;2024-01-06T12:39:11;3.78;;;1.55;;
60859;SDS011;46694;54.382;9.708;2024-01-06T12:41:41;6.00;;;1.70;;
60859;SDS011;46694;54.382;9.708;2024-01-06T12:44:08;4.72;;;1.50;;
60859;SDS011;46694;54.382;9.708;2024-01-06T12:46:34;5.80;;;1.60;;
60859;SDS011;46694;54.382;9.708;2024-01-06T12:49:01;4.00;;;1.25;;
60859;SDS011;46694;54.382;9.708;2024-01-06T12:51:27;5.00;;;1.30;;
60859;SDS011;46694;54.382;9.708;2024-01-06T12:53:54;3.30;;;1.15;;
60859;SDS011;46694;54.382;9.708;2024-01-06T12:56:20;4.57;;;1.30;;
60859;SDS011;46694;54.382;9.708;2024-01-06T12:58:46;5.20;;;1.70;;
60859;SDS011;46694;54.382;9.708;2024-01-06T13:01:13;4.50;;;1.50;;
60859;SDS011;46694;54.382;9.708;2024-01-06T13:03:39;4.45;;;1.42;;
60859;SDS011;46694;54.382;9.708;2024-01-06T13:06:05;4.57;;;1.42;;
60859;SDS011;46694;54.382;9.708;2024-01-06T13:08:31;4.35;;;1.55;;
60859;SDS011;46694;54.382;9.708;2024-01-06T13:10:57;5.47;;;1.70;;
60859;SDS011;46694;54.382;9.708;2024-01-06T13:13:23;4.47;;;1.40;;
60859;SDS011;46694;54.382;9.708;2024-01-06T13:15:49;4.15;;;1.45;;
60859;SDS011;46694;54.382;9.708;2024-01-06T13:18:14;4.93;;;1.52;;
60859;SDS011;46694;54.382;9.708;2024-01-06T13:20:43;5.32;;;1.85;;
60859;SDS011;46694;54.382;9.708;2024-01-06T13:23:09;6.28;;;1.70;;
60859;SDS011;46694;54.382;9.708;2024-01-06T13:25:37;4.57;;;1.40;;
60859;SDS011;46694;54.382;9.708;2024-01-06T13:28:05;4.32;;;1.70;;
60859;SDS011;46694;54.382;9.708;2024-01-06T13:30:32;3.97;;;1.48;;
60859;SDS011;46694;54.382;9.708;2024-01-06T13:32:58;5.65;;;1.33;;
60859;SDS011;46694;54.382;9.708;2024-01-06T13:35:25;3.35;;;1.15;;
60859;SDS011;46694;54.382;9.708;2024-01-06T13:37:51;6.40;;;1.70;;
60859;SDS011;46694;54.382;9.708;2024-01-06T13:40:18;3.78;;;1.30;;
60859;SDS011;46694;54.382;9.708;2024-01-06T13:42:50;5.70;;;1.30;;
60859;SDS011;46694;54.382;9.708;2024-01-06T13:45:17;3.65;;;1.33;;
60859;SDS011;46694;54.382;9.708;2024-01-06T13:47:43;3.42;;;1.33;;
60859;SDS011;46694;54.382;9.708;2024-01-06T13:50:11;4.72;;;1.58;;
60859;SDS011;46694;54.382;9.708;2024-01-06T13:52:38;5.30;;;1.33;;
60859;SDS011;46694;54.382;9.708;2024-01-06T13:55:04;6.45;;;1.63;;
60859;SDS011;46694;54.382;9.708;2024-01-06T13:57:31;4.82;;;1.50;;
60859;SDS011;46694;54.382;9.708;2024-01-06T13:59:57;4.72;;;1.40;;
60859;SDS011;46694;54.382;9.708;2024-01-06T14:02:23;8.27;;;1.73;;
60859;SDS011;46694;54.382;9.708;2024-01-06T14:04:50;4.55;;;1.45;;
60859;SDS011;46694;54.382;9.708;2024-01-06T14:07:16;2.95;;;1.10;;
60859;SDS011;46694;54.382;9.708;2024-01-06T14:09:47;4.85;;;1.25;;
60859;SDS011;46694;54.382;9.708;2024-01-06T14:12:13;6.60;;;1.83;;
60859;SDS011;46694;54.382;9.708;2024-01-06T14:14:39;3.28;;;1.05;;
60859;SDS011;46694;54.382;9.708;2024-01-06T14:17:08;6.60;;;1.40;;
60859;SDS011;46694;54.382;9.708;2024-01-06T14:19:34;5.00;;;1.63;;
60859;SDS011;46694;54.382;9.708;2024-01-06T14:22:00;6.78;;;1.60;;
60859;SDS011;46694;54.382;9.708;2024-01-06T14:24:26;6.10;;;1.70;;
60859;SDS011;46694;54.382;9.708;2024-01-06T14:26:55;6.05;;;1.75;;
60859;SDS011;46694;54.382;9.708;2024-01-06T14:29:22;4.70;;;1.20;;
60859;SDS011;46694;54.382;9.708;2024-01-06T14:31:48;6.13;;;1.80;;
60859;SDS011;46694;54.382;9.708;2024-01-06T14:34:14;5.05;;;1.80;;
60859;SDS011;46694;54.382;9.708;2024-01-06T14:36:41;5.18;;;1.42;;
60859;SDS011;46694;54.382;9.708;2024-01-06T14:39:15;7.55;;;2.17;;
60859;SDS011;46694;54.382;9.708;2024-01-06T14:41:42;5.82;;;1.63;;
60859;SDS011;46694;54.382;9.708;2024-01-06T14:44:08;6.57;;;1.67;;
60859;SDS011;46694;54.382;9.708;2024-01-06T14:46:35;3.83;;;1.67;;
60859;SDS011;46694;54.382;9.708;2024-01-06T14:49:02;6.38;;;1.85;;
60859;SDS011;46694;54.382;9.708;2024-01-06T14:51:28;5.68;;;1.65;;
60859;SDS011;46694;54.382;9.708;2024-01-06T14:53:55;5.63;;;2.10;;
60859;SDS011;46694;54.382;9.708;2024-01-06T14:56:22;7.18;;;1.88;;
60859;SDS011;46694;54.382;9.708;2024-01-06T14:58:49;5.15;;;1.95;;